sensor_id;sensor_type;location;lat;lon;timestamp;temperature;humidity
6110;DHT22;3085;49.444;11.054;2023-03-03T00:01:18;3.70;99.90
6110;DHT22;3085;49.444;11.054;2023-03-03T00:03:46;3.70;99.90
6110;DHT22;3085;49.444;11.054;2023-03-03T00:06:13;3.70;99.90
6110;DHT22;3085;49.444;11.054;2023-03-03T00:08:42;4.80;99.90
6110;DHT22;3085;49.444;11.054;2023-03-03T00:11:09;3.60;99.90
6110;DHT22;3085;49.444;11.054;2023-03-03T00:13:47;3.60;99.90
6110;DHT22;3085;49.444;11.054;2023-03-03T00:16:20;3.50;99.90
6110;DHT22;3085;49.444;11.054;2023-03-03T00:18:48;3.50;99.90
6110;DHT22;3085;49.444;11.054;2023-03-03T00:21:24;3.50;99.90
6110;DHT22;3085;49.444;11.054;2023-03-03T00:24:04;3.60;99.90
6110;DHT22;3085;49.444;11.054;2023-03-03T00:26:39;3.50;99.90
6110;DHT22;3085;49.444;11.054;2023-03-03T00:29:30;3.50;99.90
6110;DHT22;3085;49.444;11.054;2023-03-03T00:32:17;3.40;99.90
6110;DHT22;3085;49.444;11.054;2023-03-03T00:34:47;3.40;99.90
6110;DHT22;3085;49.444;11.054;2023-03-03T00:37:31;3.40;99.90
6110;DHT22;3085;49.444;11.054;2023-03-03T00:40:12;3.40;99.90
6110;DHT22;3085;49.444;11.054;2023-03-03T00:42:42;3.40;99.90
6110;DHT22;3085;49.444;11.054;2023-03-03T00:45:23;3.40;99.90
6110;DHT22;3085;49.444;11.054;2023-03-03T00:47:52;3.30;99.90
6110;DHT22;3085;49.444;11.054;2023-03-03T00:50:37;3.60;99.90
6110;DHT22;3085;49.444;11.054;2023-03-03T00:53:10;3.30;99.90
6110;DHT22;3085;49.444;11.054;2023-03-03T00:55:39;3.30;99.90
6110;DHT22;3085;49.444;11.054;2023-03-03T00:58:06;3.30;99.90
6110;DHT22;3085;49.444;11.054;2023-03-03T01:00:33;3.30;99.90
6110;DHT22;3085;49.444;11.054;2023-03-03T01:03:03;3.30;99.90
6110;DHT22;3085;49.444;11.054;2023-03-03T01:05:31;3.20;99.90
6110;DHT22;3085;49.444;11.054;2023-03-03T01:07:58;4.20;99.90
6110;DHT22;3085;49.444;11.054;2023-03-03T01:10:26;3.20;99.90
6110;DHT22;3085;49.444;11.054;2023-03-03T01:12:55;3.20;99.90
6110;DHT22;3085;49.444;11.054;2023-03-03T01:15:23;3.20;99.90
6110;DHT22;3085;49.444;11.054;2023-03-03T01:17:51;3.10;99.90
6110;DHT22;3085;49.444;11.054;2023-03-03T01:20:19;3.10;99.90
6110;DHT22;3085;49.444;11.054;2023-03-03T01:22:46;3.30;99.90
6110;DHT22;3085;49.444;11.054;2023-03-03T01:25:13;3.10;99.90
6110;DHT22;3085;49.444;11.054;2023-03-03T01:27:40;4.70;99.90
6110;DHT22;3085;49.444;11.054;2023-03-03T01:30:10;3.00;99.90
6110;DHT22;3085;49.444;11.054;2023-03-03T01:32:37;3.00;99.90
6110;DHT22;3085;49.444;11.054;2023-03-03T01:35:05;3.00;99.90
6110;DHT22;3085;49.444;11.054;2023-03-03T01:37:33;3.00;99.90
6110;DHT22;3085;49.444;11.054;2023-03-03T01:40:00;3.00;99.90
6110;DHT22;3085;49.444;11.054;2023-03-03T01:42:28;3.00;99.90
6110;DHT22;3085;49.444;11.054;2023-03-03T01:45:19;2.90;99.90
6110;DHT22;3085;49.444;11.054;2023-03-03T01:47:51;2.90;99.90
6110;DHT22;3085;49.444;11.054;2023-03-03T01:50:29;2.90;99.90
6110;DHT22;3085;49.444;11.054;2023-03-03T01:52:59;2.90;99.90
6110;DHT22;3085;49.444;11.054;2023-03-03T01:55:33;2.90;99.90
6110;DHT22;3085;49.444;11.054;2023-03-03T01:58:03;3.00;99.90
6110;DHT22;3085;49.444;11.054;2023-03-03T02:00:35;2.90;99.90
6110;DHT22;3085;49.444;11.054;2023-03-03T02:03:04;2.90;99.90
6110;DHT22;3085;49.444;11.054;2023-03-03T02:05:31;3.50;99.90
6110;DHT22;3085;49.444;11.054;2023-03-03T02:07:59;2.80;99.90
6110;DHT22;3085;49.444;11.054;2023-03-03T02:10:27;4.10;99.90
6110;DHT22;3085;49.444;11.054;2023-03-03T02:12:56;2.70;99.90
6110;DHT22;3085;49.444;11.054;2023-03-03T02:15:25;2.70;99.90
6110;DHT22;3085;49.444;11.054;2023-03-03T02:17:55;2.70;99.90
6110;DHT22;3085;49.444;11.054;2023-03-03T02:20:31;2.60;99.90
6110;DHT22;3085;49.444;11.054;2023-03-03T02:23:05;2.60;99.90
6110;DHT22;3085;49.444;11.054;2023-03-03T02:25:39;2.60;99.90
6110;DHT22;3085;49.444;11.054;2023-03-03T02:28:13;2.60;99.90
6110;DHT22;3085;49.444;11.054;2023-03-03T02:30:40;3.00;99.90
6110;DHT22;3085;49.444;11.054;2023-03-03T02:33:07;3.30;99.90
6110;DHT22;3085;49.444;11.054;2023-03-03T02:35:36;2.50;99.90
6110;DHT22;3085;49.444;11.054;2023-03-03T02:38:16;2.50;99.90
6110;DHT22;3085;49.444;11.054;2023-03-03T02:40:54;2.50;99.90
6110;DHT22;3085;49.444;11.054;2023-03-03T02:43:27;3.30;99.90
6110;DHT22;3085;49.444;11.054;2023-03-03T02:45:58;2.50;99.90
6110;DHT22;3085;49.444;11.054;2023-03-03T02:48:25;3.60;99.90
6110;DHT22;3085;49.444;11.054;2023-03-03T02:50:53;2.40;99.90
6110;DHT22;3085;49.444;11.054;2023-03-03T02:53:23;2.40;99.90
6110;DHT22;3085;49.444;11.054;2023-03-03T02:55:50;2.40;99.90
6110;DHT22;3085;49.444;11.054;2023-03-03T02:58:18;2.40;99.90
6110;DHT22;3085;49.444;11.054;2023-03-03T03:00:47;2.40;99.90
6110;DHT22;3085;49.444;11.054;2023-03-03T03:03:17;2.30;99.90
6110;DHT22;3085;49.444;11.054;2023-03-03T03:05:46;2.30;99.90
6110;DHT22;3085;49.444;11.054;2023-03-03T03:08:13;2.20;99.90
6110;DHT22;3085;49.444;11.054;2023-03-03T03:10:40;2.20;99.90
6110;DHT22;3085;49.444;11.054;2023-03-03T03:13:07;2.20;99.90
6110;DHT22;3085;49.444;11.054;2023-03-03T03:15:37;2.10;99.90
6110;DHT22;3085;49.444;11.054;2023-03-03T03:18:07;2.10;99.90
6110;DHT22;3085;49.444;11.054;2023-03-03T03:20:35;2.10;99.90
6110;DHT22;3085;49.444;11.054;2023-03-03T03:23:04;2.00;99.90
6110;DHT22;3085;49.444;11.054;2023-03-03T03:25:31;2.00;99.90
6110;DHT22;3085;49.444;11.054;2023-03-03T03:27:59;1.90;99.90
6110;DHT22;3085;49.444;11.054;2023-03-03T03:30:26;2.40;99.90
6110;DHT22;3085;49.444;11.054;2023-03-03T03:32:53;1.90;99.90
6110;DHT22;3085;49.444;11.054;2023-03-03T03:35:22;2.00;99.90
6110;DHT22;3085;49.444;11.054;2023-03-03T03:37:49;1.90;99.90
6110;DHT22;3085;49.444;11.054;2023-03-03T03:40:16;1.80;99.90
6110;DHT22;3085;49.444;11.054;2023-03-03T03:42:44;1.80;99.90
6110;DHT22;3085;49.444;11.054;2023-03-03T03:45:12;1.80;99.90
6110;DHT22;3085;49.444;11.054;2023-03-03T03:47:39;1.80;99.90
6110;DHT22;3085;49.444;11.054;2023-03-03T03:50:08;3.20;99.90
6110;DHT22;3085;49.444;11.054;2023-03-03T03:52:36;1.80;99.90
6110;DHT22;3085;49.444;11.054;2023-03-03T03:55:05;3.10;99.90
6110;DHT22;3085;49.444;11.054;2023-03-03T03:57:33;1.80;99.90
6110;DHT22;3085;49.444;11.054;2023-03-03T04:00:00;1.70;99.90
6110;DHT22;3085;49.444;11.054;2023-03-03T04:02:27;1.70;99.90
6110;DHT22;3085;49.444;11.054;2023-03-03T04:04:54;1.70;99.90
6110;DHT22;3085;49.444;11.054;2023-03-03T04:07:22;1.70;99.90
6110;DHT22;3085;49.444;11.054;2023-03-03T04:09:50;1.70;99.90
6110;DHT22;3085;49.444;11.054;2023-03-03T04:12:17;1.60;99.90
6110;DHT22;3085;49.444;11.054;2023-03-03T04:14:48;1.60;99.90
6110;DHT22;3085;49.444;11.054;2023-03-03T04:17:17;1.70;99.90
6110;DHT22;3085;49.444;11.054;2023-03-03T04:19:44;1.70;99.90
6110;DHT22;3085;49.444;11.054;2023-03-03T04:22:12;1.70;99.90
6110;DHT22;3085;49.444;11.054;2023-03-03T04:24:40;1.60;99.90
6110;DHT22;3085;49.444;11.054;2023-03-03T04:27:09;1.40;99.90
6110;DHT22;3085;49.444;11.054;2023-03-03T04:29:38;2.90;99.90
6110;DHT22;3085;49.444;11.054;2023-03-03T04:32:07;1.50;99.90
6110;DHT22;3085;49.444;11.054;2023-03-03T04:34:35;1.40;99.90
6110;DHT22;3085;49.444;11.054;2023-03-03T04:37:02;1.40;99.90
6110;DHT22;3085;49.444;11.054;2023-03-03T04:39:32;1.40;99.90
6110;DHT22;3085;49.444;11.054;2023-03-03T04:42:00;1.40;99.90
6110;DHT22;3085;49.444;11.054;2023-03-03T04:44:28;1.40;99.90
6110;DHT22;3085;49.444;11.054;2023-03-03T04:46:55;1.40;99.90
6110;DHT22;3085;49.444;11.054;2023-03-03T04:49:23;1.40;99.90
6110;DHT22;3085;49.444;11.054;2023-03-03T04:51:53;1.40;99.90
6110;DHT22;3085;49.444;11.054;2023-03-03T04:54:20;1.60;99.90
6110;DHT22;3085;49.444;11.054;2023-03-03T04:56:52;2.40;99.90
6110;DHT22;3085;49.444;11.054;2023-03-03T04:59:20;1.30;99.90
6110;DHT22;3085;49.444;11.054;2023-03-03T05:01:48;1.30;99.90
6110;DHT22;3085;49.444;11.054;2023-03-03T05:04:16;1.30;99.90
6110;DHT22;3085;49.444;11.054;2023-03-03T05:06:43;1.30;99.90
6110;DHT22;3085;49.444;11.054;2023-03-03T05:09:10;1.30;99.90
6110;DHT22;3085;49.444;11.054;2023-03-03T05:11:37;1.30;99.90
6110;DHT22;3085;49.444;11.054;2023-03-03T05:14:04;1.30;99.90
6110;DHT22;3085;49.444;11.054;2023-03-03T05:16:32;1.30;99.90
6110;DHT22;3085;49.444;11.054;2023-03-03T05:19:01;1.20;99.90
6110;DHT22;3085;49.444;11.054;2023-03-03T05:21:28;1.30;99.90
6110;DHT22;3085;49.444;11.054;2023-03-03T05:23:55;1.20;99.90
6110;DHT22;3085;49.444;11.054;2023-03-03T05:26:22;1.20;99.90
6110;DHT22;3085;49.444;11.054;2023-03-03T05:28:49;1.20;99.90
6110;DHT22;3085;49.444;11.054;2023-03-03T05:31:17;1.30;99.90
6110;DHT22;3085;49.444;11.054;2023-03-03T05:33:44;1.30;99.90
6110;DHT22;3085;49.444;11.054;2023-03-03T05:36:12;1.20;99.90
6110;DHT22;3085;49.444;11.054;2023-03-03T05:38:39;1.00;99.90
6110;DHT22;3085;49.444;11.054;2023-03-03T05:41:06;1.20;99.90
6110;DHT22;3085;49.444;11.054;2023-03-03T05:43:33;1.20;99.90
6110;DHT22;3085;49.444;11.054;2023-03-03T05:46:00;1.60;99.90
6110;DHT22;3085;49.444;11.054;2023-03-03T05:48:27;2.60;99.90
6110;DHT22;3085;49.444;11.054;2023-03-03T05:50:56;1.10;99.90
6110;DHT22;3085;49.444;11.054;2023-03-03T05:53:24;1.10;99.90
6110;DHT22;3085;49.444;11.054;2023-03-03T05:55:55;1.10;99.90
6110;DHT22;3085;49.444;11.054;2023-03-03T05:58:22;1.10;99.90
6110;DHT22;3085;49.444;11.054;2023-03-03T06:00:52;1.10;99.90
6110;DHT22;3085;49.444;11.054;2023-03-03T06:03:19;1.10;99.90
6110;DHT22;3085;49.444;11.054;2023-03-03T06:05:46;1.00;99.90
6110;DHT22;3085;49.444;11.054;2023-03-03T06:08:13;1.00;99.90
6110;DHT22;3085;49.444;11.054;2023-03-03T06:10:41;1.00;99.90
6110;DHT22;3085;49.444;11.054;2023-03-03T06:13:09;1.30;99.90
6110;DHT22;3085;49.444;11.054;2023-03-03T06:15:36;2.00;99.90
6110;DHT22;3085;49.444;11.054;2023-03-03T06:18:03;0.90;99.90
6110;DHT22;3085;49.444;11.054;2023-03-03T06:20:30;1.10;99.90
6110;DHT22;3085;49.444;11.054;2023-03-03T06:22:59;0.80;99.90
6110;DHT22;3085;49.444;11.054;2023-03-03T06:25:27;0.80;99.90
6110;DHT22;3085;49.444;11.054;2023-03-03T06:27:57;0.90;99.90
6110;DHT22;3085;49.444;11.054;2023-03-03T06:30:25;1.00;99.90
6110;DHT22;3085;49.444;11.054;2023-03-03T06:32:53;0.90;99.90
6110;DHT22;3085;49.444;11.054;2023-03-03T06:35:20;0.90;99.90
6110;DHT22;3085;49.444;11.054;2023-03-03T06:37:47;0.90;99.90
6110;DHT22;3085;49.444;11.054;2023-03-03T06:40:15;0.90;99.90
6110;DHT22;3085;49.444;11.054;2023-03-03T06:42:42;0.90;99.90
6110;DHT22;3085;49.444;11.054;2023-03-03T06:45:14;0.90;99.90
6110;DHT22;3085;49.444;11.054;2023-03-03T06:47:47;1.00;99.90
6110;DHT22;3085;49.444;11.054;2023-03-03T06:50:17;2.10;99.90
6110;DHT22;3085;49.444;11.054;2023-03-03T06:52:49;1.10;99.90
6110;DHT22;3085;49.444;11.054;2023-03-03T06:55:21;1.20;99.90
6110;DHT22;3085;49.444;11.054;2023-03-03T06:57:48;1.60;99.90
6110;DHT22;3085;49.444;11.054;2023-03-03T07:00:20;1.30;99.90
6110;DHT22;3085;49.444;11.054;2023-03-03T07:02:55;1.30;99.90
6110;DHT22;3085;49.444;11.054;2023-03-03T07:05:27;1.30;99.90
6110;DHT22;3085;49.444;11.054;2023-03-03T07:07:55;1.30;99.90
6110;DHT22;3085;49.444;11.054;2023-03-03T07:10:24;1.70;99.90
6110;DHT22;3085;49.444;11.054;2023-03-03T07:12:52;2.80;99.90
6110;DHT22;3085;49.444;11.054;2023-03-03T07:15:23;1.40;99.90
6110;DHT22;3085;49.444;11.054;2023-03-03T07:17:55;1.40;99.90
6110;DHT22;3085;49.444;11.054;2023-03-03T07:20:31;1.50;99.90
6110;DHT22;3085;49.444;11.054;2023-03-03T07:22:59;1.30;99.90
6110;DHT22;3085;49.444;11.054;2023-03-03T07:25:30;1.40;99.90
6110;DHT22;3085;49.444;11.054;2023-03-03T07:27:59;1.40;99.90
6110;DHT22;3085;49.444;11.054;2023-03-03T07:30:29;2.50;99.90
6110;DHT22;3085;49.444;11.054;2023-03-03T07:32:57;1.40;99.90
6110;DHT22;3085;49.444;11.054;2023-03-03T07:35:37;1.30;99.90
6110;DHT22;3085;49.444;11.054;2023-03-03T07:38:18;1.30;99.90
6110;DHT22;3085;49.444;11.054;2023-03-03T07:40:49;1.40;99.90
6110;DHT22;3085;49.444;11.054;2023-03-03T07:43:29;1.30;99.90
6110;DHT22;3085;49.444;11.054;2023-03-03T07:46:22;1.40;99.90
6110;DHT22;3085;49.444;11.054;2023-03-03T07:48:59;1.10;99.90
6110;DHT22;3085;49.444;11.054;2023-03-03T07:51:28;1.50;99.90
6110;DHT22;3085;49.444;11.054;2023-03-03T07:54:29;1.60;99.90
6110;DHT22;3085;49.444;11.054;2023-03-03T07:56:58;1.60;99.90
6110;DHT22;3085;49.444;11.054;2023-03-03T07:59:27;1.70;99.90
6110;DHT22;3085;49.444;11.054;2023-03-03T08:01:56;1.80;99.90
6110;DHT22;3085;49.444;11.054;2023-03-03T08:04:31;1.80;99.90
6110;DHT22;3085;49.444;11.054;2023-03-03T08:07:11;1.90;99.90
6110;DHT22;3085;49.444;11.054;2023-03-03T08:09:56;1.90;99.90
6110;DHT22;3085;49.444;11.054;2023-03-03T08:12:35;2.00;99.90
6110;DHT22;3085;49.444;11.054;2023-03-03T08:15:21;2.20;99.90
6110;DHT22;3085;49.444;11.054;2023-03-03T08:17:51;2.20;99.90
6110;DHT22;3085;49.444;11.054;2023-03-03T08:20:46;2.10;99.90
6110;DHT22;3085;49.444;11.054;2023-03-03T08:23:25;2.10;99.90
6110;DHT22;3085;49.444;11.054;2023-03-03T08:25:52;1.30;99.90
6110;DHT22;3085;49.444;11.054;2023-03-03T08:28:20;2.60;99.90
6110;DHT22;3085;49.444;11.054;2023-03-03T08:30:49;2.40;99.90
6110;DHT22;3085;49.444;11.054;2023-03-03T08:33:17;3.20;99.90
6110;DHT22;3085;49.444;11.054;2023-03-03T08:35:45;2.60;99.90
6110;DHT22;3085;49.444;11.054;2023-03-03T08:38:14;2.70;99.90
6110;DHT22;3085;49.444;11.054;2023-03-03T08:40:43;2.80;99.90
6110;DHT22;3085;49.444;11.054;2023-03-03T08:43:10;3.20;99.90
6110;DHT22;3085;49.444;11.054;2023-03-03T08:45:42;2.90;99.90
6110;DHT22;3085;49.444;11.054;2023-03-03T08:48:09;2.80;99.90
6110;DHT22;3085;49.444;11.054;2023-03-03T08:50:38;2.90;99.90
6110;DHT22;3085;49.444;11.054;2023-03-03T08:53:06;2.90;99.90
6110;DHT22;3085;49.444;11.054;2023-03-03T08:55:33;3.40;99.90
6110;DHT22;3085;49.444;11.054;2023-03-03T08:58:00;3.20;99.90
6110;DHT22;3085;49.444;11.054;2023-03-03T09:00:27;2.90;99.90
6110;DHT22;3085;49.444;11.054;2023-03-03T09:02:56;3.30;99.90
6110;DHT22;3085;49.444;11.054;2023-03-03T09:05:24;3.40;99.90
6110;DHT22;3085;49.444;11.054;2023-03-03T09:07:53;3.50;99.90
6110;DHT22;3085;49.444;11.054;2023-03-03T09:10:26;3.70;99.90
6110;DHT22;3085;49.444;11.054;2023-03-03T09:12:55;3.80;99.90
6110;DHT22;3085;49.444;11.054;2023-03-03T09:15:25;3.90;99.90
6110;DHT22;3085;49.444;11.054;2023-03-03T09:17:53;4.00;99.90
6110;DHT22;3085;49.444;11.054;2023-03-03T09:20:30;5.20;99.90
6110;DHT22;3085;49.444;11.054;2023-03-03T09:23:27;4.20;99.90
6110;DHT22;3085;49.444;11.054;2023-03-03T09:25:54;4.20;99.90
6110;DHT22;3085;49.444;11.054;2023-03-03T09:28:24;4.20;99.90
6110;DHT22;3085;49.444;11.054;2023-03-03T09:30:52;4.30;99.90
6110;DHT22;3085;49.444;11.054;2023-03-03T09:33:25;4.40;99.90
6110;DHT22;3085;49.444;11.054;2023-03-03T09:35:58;4.60;99.90
6110;DHT22;3085;49.444;11.054;2023-03-03T09:38:30;4.70;99.90
6110;DHT22;3085;49.444;11.054;2023-03-03T09:41:11;4.80;99.90
6110;DHT22;3085;49.444;11.054;2023-03-03T09:43:48;5.20;99.90
6110;DHT22;3085;49.444;11.054;2023-03-03T09:46:21;5.00;99.90
6110;DHT22;3085;49.444;11.054;2023-03-03T09:49:00;5.10;99.90
6110;DHT22;3085;49.444;11.054;2023-03-03T09:54:38;5.30;99.90
6110;DHT22;3085;49.444;11.054;2023-03-03T09:57:12;5.40;99.90
6110;DHT22;3085;49.444;11.054;2023-03-03T09:59:51;5.70;99.90
6110;DHT22;3085;49.444;11.054;2023-03-03T10:02:35;5.60;99.90
6110;DHT22;3085;49.444;11.054;2023-03-03T10:05:13;5.50;99.90
6110;DHT22;3085;49.444;11.054;2023-03-03T10:07:52;5.60;99.90
6110;DHT22;3085;49.444;11.054;2023-03-03T10:10:52;5.60;99.90
6110;DHT22;3085;49.444;11.054;2023-03-03T10:13:30;5.70;99.90
6110;DHT22;3085;49.444;11.054;2023-03-03T10:16:15;5.70;99.90
6110;DHT22;3085;49.444;11.054;2023-03-03T10:18:50;5.70;99.90
6110;DHT22;3085;49.444;11.054;2023-03-03T10:21:23;5.80;99.90
6110;DHT22;3085;49.444;11.054;2023-03-03T10:23:55;6.00;99.90
6110;DHT22;3085;49.444;11.054;2023-03-03T10:26:47;6.00;99.90
6110;DHT22;3085;49.444;11.054;2023-03-03T10:29:23;6.10;99.90
6110;DHT22;3085;49.444;11.054;2023-03-03T10:32:14;6.20;99.90
6110;DHT22;3085;49.444;11.054;2023-03-03T10:35:04;6.30;99.90
6110;DHT22;3085;49.444;11.054;2023-03-03T10:37:40;6.40;99.90
6110;DHT22;3085;49.444;11.054;2023-03-03T10:40:18;6.50;99.90
6110;DHT22;3085;49.444;11.054;2023-03-03T10:43:02;6.40;99.90
6110;DHT22;3085;49.444;11.054;2023-03-03T10:45:44;6.60;99.90
6110;DHT22;3085;49.444;11.054;2023-03-03T10:48:45;6.70;99.90
6110;DHT22;3085;49.444;11.054;2023-03-03T10:51:21;6.70;99.90
6110;DHT22;3085;49.444;11.054;2023-03-03T10:53:58;6.70;99.90
6110;DHT22;3085;49.444;11.054;2023-03-03T10:56:35;6.80;99.90
6110;DHT22;3085;49.444;11.054;2023-03-03T10:59:20;6.80;99.90
6110;DHT22;3085;49.444;11.054;2023-03-03T11:01:56;6.80;99.90
6110;DHT22;3085;49.444;11.054;2023-03-03T11:04:39;6.70;99.90
6110;DHT22;3085;49.444;11.054;2023-03-03T11:07:12;6.70;99.90
6110;DHT22;3085;49.444;11.054;2023-03-03T11:10:00;6.80;99.90
6110;DHT22;3085;49.444;11.054;2023-03-03T11:12:47;6.90;99.90
6110;DHT22;3085;49.444;11.054;2023-03-03T11:15:42;6.90;99.90
6110;DHT22;3085;49.444;11.054;2023-03-03T11:18:23;7.00;99.90
6110;DHT22;3085;49.444;11.054;2023-03-03T11:20:59;7.10;99.90
6110;DHT22;3085;49.444;11.054;2023-03-03T11:23:48;7.20;99.90
6110;DHT22;3085;49.444;11.054;2023-03-03T11:26:28;7.20;99.90
6110;DHT22;3085;49.444;11.054;2023-03-03T11:31:54;7.30;99.90
6110;DHT22;3085;49.444;11.054;2023-03-03T11:34:37;7.30;99.90
6110;DHT22;3085;49.444;11.054;2023-03-03T11:37:12;7.30;99.90
6110;DHT22;3085;49.444;11.054;2023-03-03T11:39:43;7.50;99.90
6110;DHT22;3085;49.444;11.054;2023-03-03T11:42:17;7.50;99.90
6110;DHT22;3085;49.444;11.054;2023-03-03T11:44:49;7.70;99.90
6110;DHT22;3085;49.444;11.054;2023-03-03T11:47:23;7.60;99.90
6110;DHT22;3085;49.444;11.054;2023-03-03T11:49:56;7.50;99.90
6110;DHT22;3085;49.444;11.054;2023-03-03T11:52:32;7.80;99.90
6110;DHT22;3085;49.444;11.054;2023-03-03T11:55:03;7.80;99.90
6110;DHT22;3085;49.444;11.054;2023-03-03T11:57:35;7.70;99.90
6110;DHT22;3085;49.444;11.054;2023-03-03T12:00:14;7.70;99.90
6110;DHT22;3085;49.444;11.054;2023-03-03T12:03:01;7.80;99.90
6110;DHT22;3085;49.444;11.054;2023-03-03T12:05:46;7.80;99.90
6110;DHT22;3085;49.444;11.054;2023-03-03T12:08:23;7.90;99.90
6110;DHT22;3085;49.444;11.054;2023-03-03T12:10:57;8.00;99.90
6110;DHT22;3085;49.444;11.054;2023-03-03T12:13:38;8.10;99.90
6110;DHT22;3085;49.444;11.054;2023-03-03T12:16:13;8.10;99.90
6110;DHT22;3085;49.444;11.054;2023-03-03T12:18:56;8.10;99.90
6110;DHT22;3085;49.444;11.054;2023-03-03T12:21:38;8.20;99.90
6110;DHT22;3085;49.444;11.054;2023-03-03T12:24:20;8.20;99.90
6110;DHT22;3085;49.444;11.054;2023-03-03T12:26:55;8.10;99.90
6110;DHT22;3085;49.444;11.054;2023-03-03T12:29:28;8.20;99.90
6110;DHT22;3085;49.444;11.054;2023-03-03T12:32:06;8.20;99.90
6110;DHT22;3085;49.444;11.054;2023-03-03T12:34:40;8.30;99.90
6110;DHT22;3085;49.444;11.054;2023-03-03T12:37:32;8.30;99.90
6110;DHT22;3085;49.444;11.054;2023-03-03T12:40:08;8.40;99.90
6110;DHT22;3085;49.444;11.054;2023-03-03T12:42:41;8.50;99.90
6110;DHT22;3085;49.444;11.054;2023-03-03T12:45:23;8.50;99.90
6110;DHT22;3085;49.444;11.054;2023-03-03T12:47:59;8.60;99.90
6110;DHT22;3085;49.444;11.054;2023-03-03T12:50:35;8.70;99.90
6110;DHT22;3085;49.444;11.054;2023-03-03T12:53:12;8.70;99.90
6110;DHT22;3085;49.444;11.054;2023-03-03T12:55:48;8.60;99.90
6110;DHT22;3085;49.444;11.054;2023-03-03T12:58:24;8.70;99.90
6110;DHT22;3085;49.444;11.054;2023-03-03T13:01:02;8.80;99.90
6110;DHT22;3085;49.444;11.054;2023-03-03T13:03:39;8.90;99.90
6110;DHT22;3085;49.444;11.054;2023-03-03T13:06:15;8.90;99.90
6110;DHT22;3085;49.444;11.054;2023-03-03T13:08:55;8.90;99.90
6110;DHT22;3085;49.444;11.054;2023-03-03T13:11:35;8.90;99.90
6110;DHT22;3085;49.444;11.054;2023-03-03T13:14:14;9.00;99.90
6110;DHT22;3085;49.444;11.054;2023-03-03T13:16:44;9.10;99.90
6110;DHT22;3085;49.444;11.054;2023-03-03T13:19:18;9.00;99.90
6110;DHT22;3085;49.444;11.054;2023-03-03T13:21:51;9.00;99.90
6110;DHT22;3085;49.444;11.054;2023-03-03T13:24:24;9.20;99.90
6110;DHT22;3085;49.444;11.054;2023-03-03T13:26:55;9.20;99.90
6110;DHT22;3085;49.444;11.054;2023-03-03T13:29:25;9.20;99.90
6110;DHT22;3085;49.444;11.054;2023-03-03T13:31:54;9.30;99.90
6110;DHT22;3085;49.444;11.054;2023-03-03T13:34:38;9.30;99.90
6110;DHT22;3085;49.444;11.054;2023-03-03T13:37:13;9.40;99.90
6110;DHT22;3085;49.444;11.054;2023-03-03T13:39:51;9.50;99.90
6110;DHT22;3085;49.444;11.054;2023-03-03T13:42:24;9.40;99.90
6110;DHT22;3085;49.444;11.054;2023-03-03T13:44:53;9.50;99.90
6110;DHT22;3085;49.444;11.054;2023-03-03T13:47:29;9.60;99.90
6110;DHT22;3085;49.444;11.054;2023-03-03T13:50:03;9.50;99.90
6110;DHT22;3085;49.444;11.054;2023-03-03T13:52:39;9.50;99.90
6110;DHT22;3085;49.444;11.054;2023-03-03T13:55:24;9.60;99.90
6110;DHT22;3085;49.444;11.054;2023-03-03T13:57:59;9.70;99.90
6110;DHT22;3085;49.444;11.054;2023-03-03T14:00:36;9.80;99.90
6110;DHT22;3085;49.444;11.054;2023-03-03T14:06:01;9.80;99.90
6110;DHT22;3085;49.444;11.054;2023-03-03T14:08:42;9.80;99.90
6110;DHT22;3085;49.444;11.054;2023-03-03T14:11:18;9.80;99.90
6110;DHT22;3085;49.444;11.054;2023-03-03T14:13:53;9.90;99.90
6110;DHT22;3085;49.444;11.054;2023-03-03T14:16:38;10.00;99.90
6110;DHT22;3085;49.444;11.054;2023-03-03T14:19:13;10.10;99.90
6110;DHT22;3085;49.444;11.054;2023-03-03T14:21:47;10.10;99.90
6110;DHT22;3085;49.444;11.054;2023-03-03T14:24:19;10.10;99.90
6110;DHT22;3085;49.444;11.054;2023-03-03T14:26:47;10.10;99.90
6110;DHT22;3085;49.444;11.054;2023-03-03T14:29:21;10.10;99.90
6110;DHT22;3085;49.444;11.054;2023-03-03T14:31:48;10.30;99.90
6110;DHT22;3085;49.444;11.054;2023-03-03T14:34:29;10.30;99.90
6110;DHT22;3085;49.444;11.054;2023-03-03T14:37:20;10.10;99.90
6110;DHT22;3085;49.444;11.054;2023-03-03T14:39:58;10.00;99.90
6110;DHT22;3085;49.444;11.054;2023-03-03T14:42:57;10.10;99.90
6110;DHT22;3085;49.444;11.054;2023-03-03T14:46:13;10.10;99.90
6110;DHT22;3085;49.444;11.054;2023-03-03T14:48:51;10.20;99.90
6110;DHT22;3085;49.444;11.054;2023-03-03T14:51:24;10.20;99.90
6110;DHT22;3085;49.444;11.054;2023-03-03T14:53:53;10.20;99.90
6110;DHT22;3085;49.444;11.054;2023-03-03T14:56:24;10.10;99.90
6110;DHT22;3085;49.444;11.054;2023-03-03T14:58:53;10.00;99.90
6110;DHT22;3085;49.444;11.054;2023-03-03T15:01:29;10.10;99.90
6110;DHT22;3085;49.444;11.054;2023-03-03T15:04:01;10.00;99.90
6110;DHT22;3085;49.444;11.054;2023-03-03T15:06:32;10.10;99.90
6110;DHT22;3085;49.444;11.054;2023-03-03T15:09:28;9.90;99.90
6110;DHT22;3085;49.444;11.054;2023-03-03T15:12:00;10.00;99.90
6110;DHT22;3085;49.444;11.054;2023-03-03T15:14:30;10.00;99.90
6110;DHT22;3085;49.444;11.054;2023-03-03T15:20:02;9.10;99.90
6110;DHT22;3085;49.444;11.054;2023-03-03T15:22:50;9.80;99.90
6110;DHT22;3085;49.444;11.054;2023-03-03T15:25:24;9.70;99.90
6110;DHT22;3085;49.444;11.054;2023-03-03T15:28:05;9.80;99.90
6110;DHT22;3085;49.444;11.054;2023-03-03T15:30:40;9.70;99.90
6110;DHT22;3085;49.444;11.054;2023-03-03T15:33:16;9.70;99.90
6110;DHT22;3085;49.444;11.054;2023-03-03T15:35:49;9.80;99.90
6110;DHT22;3085;49.444;11.054;2023-03-03T15:38:27;10.00;99.90
6110;DHT22;3085;49.444;11.054;2023-03-03T15:41:03;10.30;99.90
6110;DHT22;3085;49.444;11.054;2023-03-03T15:43:36;10.50;99.90
6110;DHT22;3085;49.444;11.054;2023-03-03T15:46:14;10.80;99.90
6110;DHT22;3085;49.444;11.054;2023-03-03T15:48:56;10.60;99.90
6110;DHT22;3085;49.444;11.054;2023-03-03T15:51:46;11.00;99.90
6110;DHT22;3085;49.444;11.054;2023-03-03T15:54:35;11.30;99.90
6110;DHT22;3085;49.444;11.054;2023-03-03T15:57:09;11.20;99.90
6110;DHT22;3085;49.444;11.054;2023-03-03T16:00:04;10.90;99.90
6110;DHT22;3085;49.444;11.054;2023-03-03T16:02:46;10.90;99.90
6110;DHT22;3085;49.444;11.054;2023-03-03T16:05:17;11.10;99.90
6110;DHT22;3085;49.444;11.054;2023-03-03T16:07:58;11.00;99.90
6110;DHT22;3085;49.444;11.054;2023-03-03T16:10:36;10.70;99.90
6110;DHT22;3085;49.444;11.054;2023-03-03T16:13:21;10.40;99.90
6110;DHT22;3085;49.444;11.054;2023-03-03T16:16:01;10.30;99.90
6110;DHT22;3085;49.444;11.054;2023-03-03T16:18:38;10.50;99.90
6110;DHT22;3085;49.444;11.054;2023-03-03T16:21:18;10.50;99.90
6110;DHT22;3085;49.444;11.054;2023-03-03T16:23:49;10.40;99.90
6110;DHT22;3085;49.444;11.054;2023-03-03T16:26:26;10.40;99.90
6110;DHT22;3085;49.444;11.054;2023-03-03T16:29:08;10.20;99.90
6110;DHT22;3085;49.444;11.054;2023-03-03T16:31:44;9.70;99.90
6110;DHT22;3085;49.444;11.054;2023-03-03T16:34:14;9.30;99.90
6110;DHT22;3085;49.444;11.054;2023-03-03T16:36:53;9.20;99.90
6110;DHT22;3085;49.444;11.054;2023-03-03T16:39:25;8.90;99.90
6110;DHT22;3085;49.444;11.054;2023-03-03T16:41:59;8.80;99.90
6110;DHT22;3085;49.444;11.054;2023-03-03T16:44:38;8.80;99.90
6110;DHT22;3085;49.444;11.054;2023-03-03T16:47:21;8.60;99.90
6110;DHT22;3085;49.444;11.054;2023-03-03T16:49:58;8.60;99.90
6110;DHT22;3085;49.444;11.054;2023-03-03T16:52:35;8.50;99.90